Time;durP1;ratioP1;P1;durP2;ratioP2;P2;SDS_P1;SDS_P2;PMS_P1;PMS_P2;Temp;Humidity;BMP_temperature;BMP_pressure;BME280_temperature;BME280_humidity;BME280_pressure;Samples;Min_cycle;Max_cycle;Signal;HPM_P1;HPM_P2
2022/12/02 00:01:46;;;;;;;1.15;0.70;;;20.50;47.40;;;;;;5095192;28;20190;-60
2022/12/02 00:04:23;;;;;;;1.25;0.90;;;20.50;47.40;;;;;;5095487;28;20645;-59
2022/12/02 00:06:55;;;;;;;1.63;0.90;;;20.50;47.40;;;;;;5095336;28;20197;-59
2022/12/02 00:09:32;;;;;;;1.80;0.80;;;20.50;47.40;;;;;;5094473;28;20736;-60
2022/12/02 00:12:20;;;;;;;1.23;0.73;;;20.50;47.50;;;;;;5094717;28;20194;-58
2022/12/02 00:14:58;;;;;;;1.35;0.80;;;20.50;47.40;;;;;;5095531;28;20222;-58
2022/12/02 00:17:29;;;;;;;0.88;0.60;;;20.50;47.40;;;;;;5095195;28;20221;-58
2022/12/02 00:19:59;;;;;;;2.10;0.70;;;20.50;47.40;;;;;;5095019;28;20198;-57
2022/12/02 00:22:30;;;;;;;1.20;0.80;;;20.60;47.50;;;;;;5095027;28;20259;-58
2022/12/02 00:25:01;;;;;;;1.55;0.70;;;20.60;47.50;;;;;;5094971;28;20214;-57
2022/12/02 00:27:31;;;;;;;1.17;0.80;;;20.60;47.40;;;;;;5094606;28;20204;-59
2022/12/02 00:30:04;;;;;;;1.33;0.80;;;20.60;47.50;;;;;;5094616;28;20296;-56
2022/12/02 00:32:35;;;;;;;1.92;0.98;;;20.60;47.50;;;;;;5094646;28;20205;-56
2022/12/02 00:35:06;;;;;;;0.73;0.70;;;20.60;47.50;;;;;;5094400;28;20214;-57
2022/12/02 00:37:36;;;;;;;1.00;0.82;;;20.60;47.40;;;;;;5094673;28;20230;-54
2022/12/02 00:40:08;;;;;;;1.55;0.75;;;20.70;47.50;;;;;;5094772;28;20225;-61
2022/12/02 00:42:39;;;;;;;1.30;0.80;;;20.70;47.50;;;;;;5094097;28;20210;-58
2022/12/02 00:48:00;;;;;;;1.90;1.02;;;20.70;48.10;;;;;;5094613;28;20263;-56
2022/12/02 00:50:31;;;;;;;1.20;0.63;;;20.70;47.40;;;;;;5093774;28;20202;-58
2022/12/02 00:53:01;;;;;;;1.58;0.63;;;20.70;47.40;;;;;;5094049;28;20201;-59
2022/12/02 00:55:32;;;;;;;2.05;0.80;;;20.70;47.40;;;;;;5093916;28;20214;-59
2022/12/02 00:58:03;;;;;;;1.30;0.70;;;20.70;47.40;;;;;;5093862;28;20693;-57
2022/12/02 01:00:35;;;;;;;1.40;0.70;;;20.80;47.40;;;;;;5094013;28;20198;-55
2022/12/02 01:03:06;;;;;;;1.20;0.63;;;20.80;47.40;;;;;;5094394;28;20557;-57
2022/12/02 01:05:37;;;;;;;0.90;0.70;;;20.80;47.30;;;;;;5093533;28;20674;-54
2022/12/02 01:08:08;;;;;;;1.27;0.73;;;20.80;47.30;;;;;;5094004;28;20201;-53
2022/12/02 01:10:39;;;;;;;1.85;0.90;;;20.80;47.30;;;;;;5092888;28;20202;-52
2022/12/02 01:13:09;;;;;;;1.38;0.80;;;20.80;47.30;;;;;;5094057;28;20205;-55
2022/12/02 01:15:42;;;;;;;1.83;1.02;;;20.80;47.30;;;;;;5093343;28;20689;-53
2022/12/02 01:18:13;;;;;;;1.27;0.68;;;20.80;47.30;;;;;;5092892;28;20221;-53
2022/12/02 01:20:43;;;;;;;1.13;0.70;;;20.80;47.20;;;;;;5093512;28;20198;-58
2022/12/02 01:23:14;;;;;;;1.30;0.90;;;20.80;47.30;;;;;;5093454;28;20217;-53
2022/12/02 01:25:45;;;;;;;1.20;0.60;;;20.90;47.30;;;;;;5093185;28;20190;-56
2022/12/02 01:28:16;;;;;;;1.50;0.82;;;20.90;47.30;;;;;;5093068;28;20193;-52
2022/12/02 01:30:49;;;;;;;1.17;0.77;;;20.80;47.20;;;;;;5093187;28;20205;-55
2022/12/02 01:33:19;;;;;;;0.90;0.80;;;20.90;47.30;;;;;;5093692;28;20202;-53
2022/12/02 01:35:50;;;;;;;1.77;0.80;;;20.90;47.30;;;;;;5093217;28;20426;-53
2022/12/02 01:38:21;;;;;;;1.20;0.63;;;20.90;47.30;;;;;;5093419;28;20230;-53
2022/12/02 01:40:52;;;;;;;1.73;0.85;;;20.90;47.30;;;;;;5093199;28;20201;-55
2022/12/02 01:43:23;;;;;;;1.20;0.80;;;20.90;47.30;;;;;;5093310;28;20768;-55
2022/12/02 01:45:56;;;;;;;1.50;0.90;;;20.90;47.20;;;;;;5093211;28;20194;-54
2022/12/02 01:48:27;;;;;;;1.17;0.70;;;20.90;47.20;;;;;;5093474;28;20202;-52
2022/12/02 01:50:58;;;;;;;1.13;0.70;;;20.90;47.20;;;;;;5093097;28;20201;-52
2022/12/02 01:53:29;;;;;;;1.58;0.98;;;20.90;47.20;;;;;;5092951;28;20198;-52
2022/12/02 01:56:00;;;;;;;1.58;0.80;;;20.90;47.10;;;;;;5093364;28;20197;-53
2022/12/02 01:58:32;;;;;;;1.08;0.73;;;20.90;47.20;;;;;;5093383;28;20222;-53
2022/12/02 02:01:05;;;;;;;1.23;0.70;;;20.90;47.80;;;;;;5092186;28;20824;-55
2022/12/02 02:03:36;;;;;;;1.40;0.73;;;20.90;47.20;;;;;;5072559;28;20194;-51
2022/12/02 02:06:07;;;;;;;1.42;0.80;;;20.90;47.20;;;;;;5072336;28;20195;-52
2022/12/02 02:08:38;;;;;;;1.90;1.00;;;20.90;47.20;;;;;;5072185;28;20209;-54
2022/12/02 02:11:09;;;;;;;1.25;0.55;;;21.00;47.20;;;;;;5072217;28;20560;-52
2022/12/02 02:13:40;;;;;;;1.20;0.82;;;21.00;47.20;;;;;;5076047;28;20209;-52
2022/12/02 02:16:14;;;;;;;1.73;0.80;;;21.00;47.20;;;;;;5092333;28;20198;-53
2022/12/02 02:18:47;;;;;;;0.65;0.65;;;20.90;47.10;;;;;;5092491;28;20601;-56
2022/12/02 02:21:22;;;;;;;1.67;1.00;;;21.00;47.10;;;;;;5091950;28;20205;-56
2022/12/02 02:23:55;;;;;;;1.20;0.70;;;21.00;47.10;;;;;;5092119;28;20224;-55
2022/12/02 02:26:26;;;;;;;1.35;0.90;;;21.00;47.10;;;;;;5092222;28;20190;-55
2022/12/02 02:28:57;;;;;;;2.08;0.80;;;21.00;47.10;;;;;;5092377;28;20205;-53
2022/12/02 02:31:28;;;;;;;1.23;0.70;;;21.00;47.20;;;;;;5092276;28;20190;-57
2022/12/02 02:33:58;;;;;;;1.10;0.80;;;21.00;47.10;;;;;;5092295;28;20221;-56
2022/12/02 02:36:29;;;;;;;2.25;0.90;;;21.00;47.10;;;;;;5092362;28;20201;-56
2022/12/02 02:39:02;;;;;;;2.25;0.85;;;21.00;47.20;;;;;;5092213;28;20233;-55
2022/12/02 02:41:33;;;;;;;0.90;0.60;;;21.00;47.10;;;;;;5091959;28;20204;-55
2022/12/02 02:44:04;;;;;;;1.25;0.80;;;21.00;47.10;;;;;;5092670;28;20218;-53
2022/12/02 02:46:35;;;;;;;1.00;0.60;;;21.00;47.10;;;;;;5092269;28;20194;-53
2022/12/02 02:49:06;;;;;;;1.20;0.80;;;21.10;47.10;;;;;;5092403;28;20198;-55
2022/12/02 02:51:38;;;;;;;1.80;0.88;;;21.00;47.10;;;;;;5091523;28;20194;-54
2022/12/02 02:54:10;;;;;;;1.55;0.75;;;21.10;47.10;;;;;;5091283;28;20221;-56
2022/12/02 02:56:41;;;;;;;1.02;0.70;;;21.00;47.10;;;;;;5071778;28;20642;-51
2022/12/02 02:59:15;;;;;;;1.25;0.80;;;21.10;47.10;;;;;;5074302;28;20697;-54
2022/12/02 03:01:48;;;;;;;1.02;0.80;;;21.10;47.10;;;;;;5091355;28;20201;-53
2022/12/02 03:04:21;;;;;;;2.20;1.02;;;21.10;47.10;;;;;;5091888;28;20221;-55
2022/12/02 03:06:53;;;;;;;1.17;0.80;;;21.10;47.10;;;;;;5092299;28;20200;-56
2022/12/02 03:09:26;;;;;;;1.08;0.70;;;21.10;47.10;;;;;;5092064;28;20200;-53
2022/12/02 03:11:58;;;;;;;0.80;0.60;;;21.10;47.10;;;;;;5092386;28;20657;-57
2022/12/02 03:14:30;;;;;;;1.95;0.90;;;21.10;47.10;;;;;;5091732;28;20215;-57
2022/12/02 03:17:02;;;;;;;1.38;0.90;;;21.10;47.10;;;;;;5071600;28;20692;-58
2022/12/02 03:19:35;;;;;;;1.00;0.80;;;21.10;47.10;;;;;;5071271;28;20202;-56
2022/12/02 03:22:08;;;;;;;1.15;0.90;;;21.10;47.10;;;;;;5083246;28;20206;-56
2022/12/02 03:24:42;;;;;;;1.63;1.00;;;21.10;47.10;;;;;;5090948;28;20705;-57
2022/12/02 03:27:13;;;;;;;1.88;0.77;;;21.10;47.10;;;;;;5091629;28;20557;-56
2022/12/02 03:29:45;;;;;;;1.95;0.95;;;21.10;47.10;;;;;;5091172;28;20212;-56
2022/12/02 03:32:19;;;;;;;1.85;1.00;;;21.10;47.10;;;;;;5091435;28;20232;-56
2022/12/02 03:34:50;;;;;;;2.03;0.82;;;21.10;47.10;;;;;;5090898;28;20210;-56
2022/12/02 03:37:21;;;;;;;0.65;0.57;;;21.10;47.10;;;;;;5090912;28;20222;-55
2022/12/02 03:39:54;;;;;;;1.88;0.85;;;21.10;47.10;;;;;;5090826;28;20194;-55
2022/12/02 03:42:25;;;;;;;1.50;1.00;;;21.10;47.10;;;;;;5091136;28;20210;-55
2022/12/02 03:44:56;;;;;;;1.75;0.90;;;21.20;47.10;;;;;;5102795;22;20589;-41
2022/12/02 03:47:27;;;;;;;2.53;0.80;;;21.10;47.10;;;;;;5091343;28;20198;-41
2022/12/02 03:49:58;;;;;;;1.60;0.93;;;21.10;47.10;;;;;;5091535;28;20194;-41
2022/12/02 03:52:30;;;;;;;1.30;1.10;;;21.10;47.10;;;;;;5074363;28;20201;-41
2022/12/02 03:55:03;;;;;;;1.77;0.95;;;21.10;47.10;;;;;;5084446;28;20229;-41
2022/12/02 03:57:36;;;;;;;1.65;0.80;;;21.20;47.10;;;;;;5090771;28;20707;-42
2022/12/02 04:00:08;;;;;;;2.38;0.95;;;21.20;47.70;;;;;;5101600;28;20197;-42
2022/12/02 04:02:39;;;;;;;3.67;1.90;;;21.20;47.20;;;;;;5112036;28;20200;-42
2022/12/02 04:05:11;;;;;;;2.33;1.08;;;21.20;47.40;;;;;;5111535;28;20225;-42
2022/12/02 04:07:41;;;;;;;1.75;1.10;;;21.20;47.40;;;;;;5110998;28;20205;-41
2022/12/02 04:10:15;;;;;;;1.73;1.10;;;21.20;47.40;;;;;;5111433;28;20551;-42
2022/12/02 04:12:45;;;;;;;3.20;1.35;;;21.20;47.30;;;;;;5111528;28;20649;-42
2022/12/02 04:15:16;;;;;;;1.45;0.90;;;21.20;47.30;;;;;;5111347;28;20225;-41
2022/12/02 04:17:47;;;;;;;1.90;1.08;;;21.20;47.30;;;;;;5109760;28;20217;-41
2022/12/02 04:20:18;;;;;;;2.92;1.00;;;21.20;47.30;;;;;;5111433;28;20194;-42
2022/12/02 04:22:49;;;;;;;3.08;1.15;;;21.20;47.30;;;;;;5111209;28;20201;-42
2022/12/02 04:25:22;;;;;;;1.95;1.00;;;21.20;47.30;;;;;;5111633;28;20225;-41
2022/12/02 04:27:53;;;;;;;2.85;1.00;;;21.20;47.30;;;;;;5111821;28;20201;-42
2022/12/02 04:30:23;;;;;;;3.40;1.40;;;21.20;47.30;;;;;;5111639;28;20206;-41
2022/12/02 04:32:54;;;;;;;2.97;1.25;;;21.20;47.30;;;;;;5111708;28;20202;-42
2022/12/02 04:35:25;;;;;;;2.38;1.00;;;21.20;47.30;;;;;;5111670;28;20213;-43
2022/12/02 04:37:56;;;;;;;2.22;1.00;;;21.30;47.30;;;;;;5110927;28;20217;-46
2022/12/02 04:40:28;;;;;;;2.55;0.90;;;21.30;47.30;;;;;;5111100;28;20673;-45
2022/12/02 04:42:59;;;;;;;2.88;1.30;;;21.20;47.30;;;;;;5111410;28;20204;-41
2022/12/02 04:45:30;;;;;;;2.95;1.10;;;21.20;47.30;;;;;;5099955;22;20226;-53
2022/12/02 04:48:00;;;;;;;1.40;1.05;;;21.20;47.30;;;;;;5074047;28;20199;-56
2022/12/02 04:50:32;;;;;;;2.22;1.10;;;21.20;47.30;;;;;;5073868;28;20202;-56
2022/12/02 04:53:02;;;;;;;2.17;1.13;;;21.20;47.20;;;;;;5074320;28;20204;-56
2022/12/02 04:55:35;;;;;;;1.90;1.13;;;21.30;47.30;;;;;;5081712;28;20218;-57
2022/12/02 04:58:06;;;;;;;1.77;0.93;;;21.30;47.30;;;;;;5074078;28;20218;-52
2022/12/02 05:00:36;;;;;;;2.55;1.33;;;21.20;47.20;;;;;;5088636;28;20673;-56
2022/12/02 05:03:07;;;;;;;1.88;1.10;;;21.20;47.20;;;;;;5094186;28;20194;-59
2022/12/02 05:05:38;;;;;;;1.23;0.98;;;21.30;47.30;;;;;;5094248;28;20218;-56
2022/12/02 05:08:09;;;;;;;3.10;1.15;;;21.30;47.30;;;;;;5093815;28;20698;-54
2022/12/02 05:10:42;;;;;;;3.80;1.15;;;21.30;47.20;;;;;;5094389;28;20706;-58
2022/12/02 05:13:12;;;;;;;3.08;1.40;;;21.30;47.30;;;;;;5094295;28;20289;-55
2022/12/02 05:15:43;;;;;;;2.63;0.95;;;21.30;47.20;;;;;;5094156;28;20225;-52
2022/12/02 05:18:16;;;;;;;2.30;1.15;;;21.30;47.20;;;;;;5093833;28;20217;-55
2022/12/02 05:20:49;;;;;;;2.70;1.15;;;21.30;47.20;;;;;;5093343;28;20244;-56
2022/12/02 05:23:20;;;;;;;3.13;1.20;;;21.30;47.20;;;;;;5092972;28;20194;-53
2022/12/02 05:25:53;;;;;;;2.60;1.15;;;21.30;47.20;;;;;;5093943;28;20553;-52
2022/12/02 05:28:23;;;;;;;1.13;0.90;;;21.30;47.20;;;;;;5093759;28;20620;-58
2022/12/02 05:30:54;;;;;;;2.53;1.10;;;21.30;47.20;;;;;;5093805;28;20201;-57
2022/12/02 05:33:25;;;;;;;2.03;1.00;;;21.30;47.20;;;;;;5093879;28;20199;-54
2022/12/02 05:35:56;;;;;;;3.90;1.20;;;21.30;47.20;;;;;;5093672;28;20567;-56
2022/12/02 05:38:26;;;;;;;2.45;1.00;;;21.30;47.20;;;;;;5093805;28;20230;-58
2022/12/02 05:40:59;;;;;;;3.22;1.20;;;21.30;47.20;;;;;;5093790;28;20569;-55
2022/12/02 05:43:32;;;;;;;3.00;1.25;;;21.30;47.20;;;;;;5093917;28;20194;-54
2022/12/02 05:46:03;;;;;;;2.92;1.10;;;21.30;47.20;;;;;;5093366;28;20636;-57
2022/12/02 05:48:36;;;;;;;2.63;1.17;;;21.30;47.20;;;;;;5093710;28;20204;-59
2022/12/02 05:51:11;;;;;;;3.38;1.50;;;21.40;47.20;;;;;;5093400;28;20560;-55
2022/12/02 05:53:44;;;;;;;2.50;1.10;;;21.30;47.10;;;;;;5093304;28;20193;-57
2022/12/02 05:56:25;;;;;;;2.65;1.27;;;21.40;47.20;;;;;;5093068;28;20198;-56
2022/12/02 05:59:01;;;;;;;1.30;1.15;;;21.40;47.20;;;;;;5092997;28;20228;-55
2022/12/02 06:01:36;;;;;;;2.03;0.80;;;21.40;47.10;;;;;;5093106;28;20650;-60
2022/12/02 06:04:07;;;;;;;1.88;0.88;;;21.40;47.10;;;;;;5093258;28;20213;-56
2022/12/02 06:06:39;;;;;;;2.20;1.00;;;21.40;47.10;;;;;;5093037;28;20198;-56
2022/12/02 06:09:16;;;;;;;3.42;1.45;;;21.40;47.10;;;;;;5093200;28;20202;-54
2022/12/02 06:11:50;;;;;;;2.83;1.40;;;21.40;47.20;;;;;;5092828;28;20198;-57
2022/12/02 06:14:22;;;;;;;2.88;1.38;;;21.40;47.20;;;;;;5092911;28;20214;-54
2022/12/02 06:16:56;;;;;;;2.13;1.27;;;21.30;47.20;;;;;;5093020;28;20217;-57
2022/12/02 06:19:29;;;;;;;2.92;1.33;;;21.30;47.10;;;;;;5092991;28;20580;-56
2022/12/02 06:22:03;;;;;;;3.90;1.42;;;21.40;47.20;;;;;;5092672;28;20287;-59
2022/12/02 06:24:36;;;;;;;3.15;1.50;;;21.40;47.20;;;;;;5092882;28;20214;-56
2022/12/02 06:27:13;;;;;;;4.53;1.40;;;21.40;47.20;;;;;;5093158;28;20201;-59
2022/12/02 06:29:51;;;;;;;2.40;1.23;;;21.40;47.10;;;;;;5092857;28;20206;-57
2022/12/02 06:32:23;;;;;;;3.47;1.63;;;21.30;47.10;;;;;;5092805;28;20194;-59
2022/12/02 06:34:55;;;;;;;3.42;1.48;;;21.30;47.10;;;;;;5092429;28;20592;-58
2022/12/02 06:37:31;;;;;;;1.58;1.20;;;21.30;47.10;;;;;;5092397;28;20190;-55
2022/12/02 06:40:02;;;;;;;5.40;1.58;;;21.30;47.10;;;;;;5092524;28;20589;-55
2022/12/02 06:42:37;;;;;;;3.05;1.02;;;21.30;47.10;;;;;;5092191;28;20209;-58
2022/12/02 06:45:22;;;;;;;3.50;1.80;;;21.30;47.10;;;;;;5092482;28;20312;-59
2022/12/02 06:48:04;;;;;;;2.85;1.63;;;21.30;47.10;;;;;;5092450;28;20201;-58
2022/12/02 06:50:40;;;;;;;2.88;1.80;;;21.30;47.10;;;;;;5092537;28;20206;-59
2022/12/02 06:53:29;;;;;;;2.47;1.60;;;21.30;47.10;;;;;;5092586;28;20198;-59
2022/12/02 06:56:03;;;;;;;3.40;1.55;;;21.30;47.10;;;;;;5090443;28;20194;-56
2022/12/02 06:58:40;;;;;;;4.50;1.88;;;21.30;47.20;;;;;;5088770;28;20220;-57
2022/12/02 07:01:23;;;;;;;3.70;1.90;;;21.30;47.20;;;;;;5092209;28;20198;-59
2022/12/02 07:04:22;;;;;;;3.28;1.40;;;21.30;47.20;;;;;;5092082;28;20213;-59
2022/12/02 07:06:56;;;;;;;4.15;1.85;;;21.30;47.20;;;;;;5086136;28;20194;-59
2022/12/02 07:09:34;;;;;;;2.70;1.65;;;21.20;47.10;;;;;;5091260;28;20532;-59
2022/12/02 07:12:04;;;;;;;4.30;1.65;;;21.20;47.20;;;;;;5092078;28;20198;-59
2022/12/02 07:14:48;;;;;;;4.22;1.77;;;21.20;47.20;;;;;;5091918;28;20214;-57
2022/12/02 07:17:25;;;;;;;3.45;1.70;;;21.20;47.30;;;;;;5091778;28;20578;-59
2022/12/02 07:20:02;;;;;;;7.07;2.20;;;21.10;47.20;;;;;;5091382;28;20225;-56
2022/12/02 07:22:36;;;;;;;5.18;1.92;;;21.20;47.30;;;;;;5091481;28;20227;-59
2022/12/02 07:25:31;;;;;;;5.47;1.75;;;21.10;47.30;;;;;;5091639;28;20220;-58
2022/12/02 07:28:03;;;;;;;5.35;2.05;;;21.10;47.40;;;;;;5091505;28;20194;-59
2022/12/02 07:30:40;;;;;;;3.30;1.70;;;21.10;47.30;;;;;;5090892;28;20194;-56
2022/12/02 07:33:11;;;;;;;4.20;1.92;;;21.10;47.40;;;;;;5091153;28;20649;-58
2022/12/02 07:35:42;;;;;;;3.75;1.65;;;21.10;47.40;;;;;;5091464;28;20214;-59
2022/12/02 07:38:12;;;;;;;3.47;1.77;;;21.10;47.40;;;;;;5091016;28;20533;-57
2022/12/02 07:40:44;;;;;;;3.65;1.65;;;21.10;47.40;;;;;;5091549;28;20202;-59
2022/12/02 07:43:16;;;;;;;3.15;1.75;;;21.10;47.40;;;;;;5091551;28;20198;-59
2022/12/02 07:45:49;;;;;;;3.42;1.60;;;21.00;47.40;;;;;;5091757;28;20226;-55
2022/12/02 07:48:19;;;;;;;3.25;1.58;;;21.00;47.40;;;;;;5090859;28;20609;-57
2022/12/02 07:50:50;;;;;;;3.85;1.67;;;21.10;47.50;;;;;;5091202;28;20202;-53
2022/12/02 07:53:21;;;;;;;4.15;1.52;;;21.00;47.50;;;;;;5091285;28;20224;-58
2022/12/02 07:55:52;;;;;;;2.47;1.83;;;21.00;47.50;;;;;;5091454;28;20221;-58
2022/12/02 07:58:23;;;;;;;4.22;2.03;;;20.90;47.50;;;;;;5091469;28;20193;-56
2022/12/02 08:00:56;;;;;;;4.10;1.90;;;20.90;47.60;;;;;;5077095;28;20229;-59
2022/12/02 08:03:26;;;;;;;3.35;1.83;;;20.90;47.60;;;;;;5090966;28;20198;-56
2022/12/02 08:05:57;;;;;;;3.45;1.63;;;20.90;47.50;;;;;;5091179;28;20221;-59
2022/12/02 08:08:28;;;;;;;3.75;1.83;;;20.90;47.50;;;;;;5091126;28;20198;-57
2022/12/02 08:10:58;;;;;;;2.58;1.55;;;20.90;47.50;;;;;;5091478;28;20650;-59
2022/12/02 08:13:29;;;;;;;2.88;1.77;;;20.90;47.50;;;;;;5090870;28;20227;-56
2022/12/02 08:16:02;;;;;;;3.67;1.90;;;20.90;47.60;;;;;;5090534;28;20205;-56
2022/12/02 08:18:32;;;;;;;5.57;2.00;;;20.90;47.60;;;;;;5091338;28;20202;-58
2022/12/02 08:21:03;;;;;;;5.50;1.88;;;20.90;47.60;;;;;;5094578;28;20208;-57
2022/12/02 08:23:34;;;;;;;3.58;1.90;;;20.80;47.50;;;;;;5094965;28;20208;-55
2022/12/02 08:26:05;;;;;;;3.42;1.65;;;20.80;47.60;;;;;;5094901;28;20529;-57
2022/12/02 08:28:35;;;;;;;3.10;1.95;;;20.80;47.60;;;;;;5094931;28;20202;-57
2022/12/02 08:31:08;;;;;;;3.25;1.50;;;20.80;47.60;;;;;;5094623;28;20206;-56
2022/12/02 08:33:39;;;;;;;4.18;1.92;;;20.70;47.60;;;;;;5094593;28;20201;-55
2022/12/02 08:36:10;;;;;;;5.60;2.00;;;20.80;47.70;;;;;;5094942;28;20198;-55
2022/12/02 08:38:41;;;;;;;4.30;2.05;;;20.70;47.60;;;;;;5091482;28;20198;-56
2022/12/02 08:41:12;;;;;;;3.95;1.60;;;20.70;47.60;;;;;;5089174;28;20191;-57
2022/12/02 08:43:42;;;;;;;4.53;2.13;;;20.70;47.70;;;;;;5091311;28;20268;-54
2022/12/02 08:46:15;;;;;;;3.53;1.80;;;20.70;47.90;;;;;;5084518;28;20677;-58
2022/12/02 08:48:46;;;;;;;4.82;2.00;;;20.70;47.90;;;;;;5079623;28;20182;-56
2022/12/02 08:51:17;;;;;;;3.05;1.88;;;20.70;47.90;;;;;;5093923;28;20191;-54
2022/12/02 08:53:48;;;;;;;3.13;1.60;;;20.70;47.90;;;;;;5092468;28;20220;-56
2022/12/02 08:56:18;;;;;;;3.58;1.77;;;20.70;47.90;;;;;;5092430;28;20598;-55
2022/12/02 08:58:49;;;;;;;3.92;2.20;;;20.70;48.00;;;;;;5091102;28;20205;-58
2022/12/02 09:01:22;;;;;;;4.43;2.30;;;20.70;48.00;;;;;;5072808;28;20197;-55
2022/12/02 09:03:52;;;;;;;4.00;2.00;;;20.60;48.00;;;;;;5075618;28;20187;-50
2022/12/02 09:06:23;;;;;;;3.45;1.88;;;20.60;48.00;;;;;;5077701;28;20198;-56
2022/12/02 09:08:54;;;;;;;2.83;1.60;;;20.60;48.00;;;;;;5093373;28;20198;-57
2022/12/02 09:11:25;;;;;;;5.60;2.38;;;20.60;48.00;;;;;;5093585;28;20584;-55
2022/12/02 09:13:55;;;;;;;2.58;1.80;;;20.60;48.00;;;;;;5092901;28;20213;-56
2022/12/02 09:16:28;;;;;;;2.30;1.50;;;20.60;48.00;;;;;;5093292;28;20193;-56
2022/12/02 09:18:59;;;;;;;3.30;1.73;;;20.60;48.00;;;;;;5092605;28;20279;-57
2022/12/02 09:21:29;;;;;;;4.05;1.85;;;20.50;48.00;;;;;;5091948;28;20205;-56
2022/12/02 09:24:00;;;;;;;4.80;1.75;;;20.60;48.00;;;;;;5093152;28;20214;-56
2022/12/02 09:26:31;;;;;;;5.05;1.90;;;20.60;48.00;;;;;;5090124;28;20194;-56
2022/12/02 09:29:01;;;;;;;3.50;1.70;;;20.50;48.00;;;;;;5082315;28;20203;-56
2022/12/02 09:31:34;;;;;;;3.78;1.90;;;20.50;48.00;;;;;;5091849;28;20190;-58
2022/12/02 09:34:05;;;;;;;3.88;2.10;;;20.50;48.00;;;;;;5092587;28;20296;-59
2022/12/02 09:36:35;;;;;;;4.00;1.92;;;20.50;48.00;;;;;;5088752;28;20187;-59
2022/12/02 09:39:06;;;;;;;4.07;2.30;;;20.50;48.00;;;;;;5072868;28;20199;-58
2022/12/02 09:41:37;;;;;;;3.50;1.83;;;20.50;48.10;;;;;;5072460;28;20194;-58
2022/12/02 09:44:09;;;;;;;4.10;1.95;;;20.40;48.00;;;;;;5082571;28;20237;-58
2022/12/02 09:46:42;;;;;;;2.95;1.75;;;20.40;48.10;;;;;;5088013;28;20554;-57
2022/12/02 09:49:12;;;;;;;2.90;1.83;;;20.40;48.10;;;;;;5073054;28;20651;-58
2022/12/02 09:51:43;;;;;;;3.22;2.05;;;20.40;48.10;;;;;;5072736;28;20191;-55
2022/12/02 09:54:17;;;;;;;4.07;1.80;;;20.40;48.00;;;;;;5071946;28;20225;-53
2022/12/02 09:56:50;;;;;;;3.35;1.98;;;20.40;48.00;;;;;;5072297;28;20260;-58
2022/12/02 09:59:21;;;;;;;3.22;1.70;;;20.40;48.00;;;;;;5075618;28;20591;-58
2022/12/02 10:01:54;;;;;;;3.75;1.77;;;20.40;48.00;;;;;;5092134;28;20259;-57
2022/12/02 10:04:25;;;;;;;3.33;1.92;;;20.40;48.00;;;;;;5092278;28;20218;-53
2022/12/02 10:06:56;;;;;;;2.50;1.38;;;20.40;48.00;;;;;;5091997;28;20532;-53
2022/12/02 10:09:31;;;;;;;3.25;2.03;;;20.30;48.00;;;;;;5091472;28;20194;-50
2022/12/02 10:12:02;;;;;;;3.80;1.77;;;20.30;48.00;;;;;;5092110;28;20186;-59
2022/12/02 10:14:32;;;;;;;4.28;1.95;;;20.30;48.00;;;;;;5091656;28;20218;-58
2022/12/02 10:17:12;;;;;;;2.83;1.40;;;20.30;48.60;;;;;;5092342;28;20194;-58
2022/12/02 10:19:42;;;;;;;3.95;1.80;;;20.20;48.00;;;;;;5091864;28;20240;-56
2022/12/02 10:22:20;;;;;;;4.97;1.70;;;20.20;48.00;;;;;;5092523;28;20187;-59
2022/12/02 10:24:51;;;;;;;3.42;1.85;;;20.20;48.00;;;;;;5091116;28;20206;-58
2022/12/02 10:27:30;;;;;;;3.78;2.25;;;20.20;48.00;;;;;;5091837;28;20190;-58
2022/12/02 10:30:22;;;;;;;4.40;1.70;;;20.20;48.00;;;;;;5092557;28;20198;-57
2022/12/02 10:33:02;;;;;;;2.83;1.50;;;20.20;48.00;;;;;;5092477;28;20691;-58
2022/12/02 10:35:46;;;;;;;2.03;1.23;;;20.20;48.00;;;;;;5092462;28;20209;-58
2022/12/02 10:38:35;;;;;;;2.75;1.70;;;20.20;48.00;;;;;;5092333;28;20198;-56
2022/12/02 10:41:20;;;;;;;3.00;1.70;;;20.20;48.00;;;;;;5092410;28;20233;-58
2022/12/02 10:46:24;;;;;;;3.38;1.80;;;20.20;48.00;;;;;;5070871;28;20221;-41
2022/12/02 10:48:56;;;;;;;3.53;1.50;;;20.10;48.00;;;;;;5072001;28;20210;-41
2022/12/02 10:51:27;;;;;;;2.47;1.50;;;20.10;48.10;;;;;;5071827;28;20203;-47
2022/12/02 10:53:59;;;;;;;4.35;1.90;;;20.10;48.10;;;;;;5072834;28;20202;-46
2022/12/02 10:56:30;;;;;;;3.22;1.88;;;20.10;48.10;;;;;;5091734;28;20282;-46
2022/12/02 10:59:01;;;;;;;3.83;1.58;;;20.10;48.20;;;;;;5081856;28;20195;-46
2022/12/02 11:01:32;;;;;;;2.55;1.77;;;20.00;48.10;;;;;;5092115;28;20229;-46
2022/12/02 11:04:04;;;;;;;3.25;1.73;;;20.10;48.20;;;;;;5092143;28;20432;-47
2022/12/02 11:06:35;;;;;;;2.67;1.60;;;20.00;48.10;;;;;;5092120;28;20217;-45
2022/12/02 11:09:06;;;;;;;3.05;1.60;;;20.00;48.10;;;;;;5092308;28;20662;-47
2022/12/02 11:11:42;;;;;;;2.90;1.42;;;20.00;48.10;;;;;;5092410;28;20202;-49
2022/12/02 11:14:15;;;;;;;3.45;1.70;;;20.00;48.10;;;;;;5092150;28;20700;-44
2022/12/02 11:17:09;;;;;;;3.20;1.55;;;20.00;48.10;;;;;;5092082;28;20623;-44
2022/12/02 11:19:47;;;;;;;3.70;1.80;;;20.00;48.10;;;;;;5085674;28;20194;-44
2022/12/02 11:22:53;;;;;;;3.47;1.88;;;20.00;48.10;;;;;;5092089;28;20197;-44
2022/12/02 11:25:57;;;;;;;2.10;1.50;;;20.00;48.10;;;;;;5091475;28;20218;-44
2022/12/02 11:28:59;;;;;;;3.25;1.60;;;19.90;48.10;;;;;;5091745;28;20208;-44
2022/12/02 11:31:30;;;;;;;3.83;1.70;;;19.90;48.10;;;;;;5091728;28;20791;-48
2022/12/02 11:34:07;;;;;;;2.75;1.42;;;19.90;48.10;;;;;;5091829;28;20198;-48
2022/12/02 11:36:40;;;;;;;2.90;1.52;;;19.90;48.10;;;;;;5091778;28;20197;-49
2022/12/02 11:39:11;;;;;;;4.18;1.77;;;19.90;48.20;;;;;;5091879;28;20194;-43
2022/12/02 11:42:21;;;;;;;2.80;1.50;;;19.90;48.20;;;;;;5091735;28;20225;-45
2022/12/02 11:44:52;;;;;;;4.13;1.80;;;19.90;48.20;;;;;;5055848;22;20226;-56
2022/12/02 11:47:30;;;;;;;2.67;1.25;;;19.90;48.20;;;;;;5071231;28;20199;-55
2022/12/02 11:50:24;;;;;;;3.38;1.60;;;19.90;48.20;;;;;;5070855;28;20203;-56
2022/12/02 11:53:02;;;;;;;3.08;1.40;;;19.80;48.20;;;;;;5070834;28;20268;-58
2022/12/02 11:55:36;;;;;;;3.22;1.65;;;19.80;48.20;;;;;;5087997;28;20579;-57
2022/12/02 11:58:18;;;;;;;2.20;1.40;;;19.80;48.20;;;;;;5095427;28;20558;-57
2022/12/02 12:01:04;;;;;;;4.03;2.05;;;19.80;48.40;;;;;;5094947;28;20777;-58
2022/12/02 12:03:35;;;;;;;2.50;1.63;;;19.80;48.10;;;;;;5095626;28;20194;-58
2022/12/02 12:06:13;;;;;;;2.20;1.40;;;19.80;48.10;;;;;;5095555;28;20217;-56
2022/12/02 12:08:48;;;;;;;3.20;1.40;;;19.80;48.10;;;;;;5095047;28;20190;-57
2022/12/02 12:11:21;;;;;;;2.55;1.38;;;19.80;48.20;;;;;;5095138;28;20255;-57
2022/12/02 12:14:22;;;;;;;2.95;1.70;;;19.70;48.10;;;;;;5095157;28;20665;-55
2022/12/02 12:16:53;;;;;;;2.63;1.52;;;19.70;48.20;;;;;;5095751;28;20197;-58
2022/12/02 12:19:29;;;;;;;2.65;1.45;;;19.70;48.10;;;;;;5095235;28;20198;-56
2022/12/02 12:22:00;;;;;;;3.10;1.60;;;19.70;48.20;;;;;;5094159;28;20574;-57
2022/12/02 12:24:35;;;;;;;3.03;1.40;;;19.70;48.10;;;;;;5094863;28;20222;-58
2022/12/02 12:27:34;;;;;;;2.72;1.60;;;19.70;48.10;;;;;;5094854;28;20190;-56
2022/12/02 12:30:05;;;;;;;2.00;1.30;;;19.70;48.10;;;;;;5094602;28;20210;-56
2022/12/02 12:32:36;;;;;;;3.88;1.65;;;19.70;48.10;;;;;;5094548;28;20205;-57
2022/12/02 12:35:07;;;;;;;2.53;1.48;;;19.70;48.10;;;;;;5094449;28;20210;-55
2022/12/02 12:37:37;;;;;;;1.85;1.15;;;19.70;48.10;;;;;;5094606;28;20198;-58
2022/12/02 12:40:11;;;;;;;2.42;1.25;;;19.70;48.10;;;;;;5094634;28;20225;-58
2022/12/02 12:42:41;;;;;;;2.30;1.40;;;19.70;48.10;;;;;;5094993;28;20194;-56
2022/12/02 12:45:13;;;;;;;2.45;1.52;;;19.60;48.10;;;;;;5095190;28;20235;-57
2022/12/02 12:47:43;;;;;;;2.45;1.60;;;19.60;48.00;;;;;;5094764;28;20199;-56
2022/12/02 12:50:14;;;;;;;2.30;1.48;;;19.60;48.10;;;;;;5094623;28;20229;-57
2022/12/02 12:52:47;;;;;;;3.08;1.40;;;19.60;48.10;;;;;;5088416;28;20276;-55
2022/12/02 12:55:21;;;;;;;2.25;1.30;;;19.60;48.20;;;;;;5073976;28;20287;-55
2022/12/02 12:57:51;;;;;;;3.20;1.67;;;19.60;48.10;;;;;;5074239;28;20693;-57
2022/12/02 13:00:23;;;;;;;2.33;1.30;;;19.60;48.70;;;;;;5086326;28;20312;-56
2022/12/02 13:02:54;;;;;;;2.78;1.48;;;19.60;48.10;;;;;;5094238;28;20194;-55
2022/12/02 13:05:25;;;;;;;1.95;1.13;;;19.60;48.10;;;;;;5094001;28;20561;-56
2022/12/02 13:07:55;;;;;;;2.55;1.40;;;19.60;48.70;;;;;;5094616;28;20197;-53
2022/12/02 13:10:28;;;;;;;3.10;1.50;;;19.60;48.10;;;;;;5094236;28;20259;-56
2022/12/02 13:12:59;;;;;;;2.20;1.40;;;19.60;48.10;;;;;;5094379;28;20194;-57
2022/12/02 13:15:29;;;;;;;2.67;1.55;;;19.60;48.00;;;;;;5093978;28;20215;-54
2022/12/02 13:18:01;;;;;;;2.92;1.40;;;19.50;48.00;;;;;;5093967;28;20561;-56
2022/12/02 13:20:32;;;;;;;1.67;1.23;;;19.50;48.00;;;;;;5093923;28;20748;-58
2022/12/02 13:23:03;;;;;;;2.25;1.38;;;19.50;48.10;;;;;;5094317;28;20194;-58
2022/12/02 13:25:35;;;;;;;2.45;1.40;;;19.50;48.10;;;;;;5094061;28;20214;-54